Time;durP1;ratioP1;P1;durP2;ratioP2;P2;SDS_P1;SDS_P2;PMS_P1;PMS_P2;Temp;Humidity;BMP_temperature;BMP_pressure;BME280_temperature;BME280_humidity;BME280_pressure;Samples;Min_cycle;Max_cycle;Signal;HPM_P1;HPM_P2
2022/03/17 00:01:09;;;;;;;119.07;60.23;;;;;;;;;;777033;178;919527;-66
2022/03/17 00:03:35;;;;;;;121.90;67.87;;;;;;;;;;776349;180;919155;-64
2022/03/17 00:06:01;;;;;;;116.87;66.93;;;;;;;;;;781327;180;919461;-64
2022/03/17 00:08:26;;;;;;;122.07;62.50;;;;;;;;;;776945;180;919539;-64
2022/03/17 00:10:52;;;;;;;129.30;63.80;;;;;;;;;;778627;177;919018;-64
2022/03/17 00:13:19;;;;;;;114.53;60.73;;;;;;;;;;779176;179;919331;-64
2022/03/17 00:15:44;;;;;;;129.30;65.03;;;;;;;;;;774168;177;920170;-64
2022/03/17 00:18:10;;;;;;;127.60;66.27;;;;;;;;;;776281;179;919431;-65
2022/03/17 00:20:36;;;;;;;126.70;62.60;;;;;;;;;;772776;178;919121;-64
2022/03/17 00:23:01;;;;;;;126.33;63.60;;;;;;;;;;768654;181;918476;-64
2022/03/17 00:25:29;;;;;;;123.70;62.07;;;;;;;;;;771000;177;919206;-64
2022/03/17 00:27:53;;;;;;;126.17;63.97;;;;;;;;;;772958;179;918968;-64
2022/03/17 00:30:19;;;;;;;127.90;63.17;;;;;;;;;;782585;175;859464;-64
2022/03/17 00:32:45;;;;;;;122.00;66.77;;;;;;;;;;777305;178;919480;-64
2022/03/17 00:37:43;;;;;;;134.95;69.05;;;;;;;;;;779662;179;919374;-62
2022/03/17 00:40:09;;;;;;;124.47;69.10;;;;;;;;;;782222;179;941704;-64
2022/03/17 00:42:36;;;;;;;130.90;64.80;;;;;;;;;;773923;179;920333;-64
2022/03/17 00:45:01;;;;;;;115.30;62.93;;;;;;;;;;775008;176;916472;-63
2022/03/17 00:47:27;;;;;;;104.33;58.90;;;;;;;;;;779433;179;625403;-65
2022/03/17 00:49:53;;;;;;;120.40;61.50;;;;;;;;;;775768;179;635022;-65
2022/03/17 00:52:20;;;;;;;103.90;59.50;;;;;;;;;;777566;179;625710;-64
2022/03/17 00:54:44;;;;;;;119.20;62.53;;;;;;;;;;770057;181;624882;-64
2022/03/17 00:57:12;;;;;;;116.60;61.90;;;;;;;;;;773814;180;632507;-66
2022/03/17 00:59:36;;;;;;;117.23;59.93;;;;;;;;;;774205;177;633545;-64
2022/03/17 01:02:02;;;;;;;113.30;57.60;;;;;;;;;;771887;180;909653;-64
2022/03/17 01:04:28;;;;;;;117.20;60.50;;;;;;;;;;766444;180;918081;-65
2022/03/17 01:06:54;;;;;;;118.30;62.20;;;;;;;;;;783285;178;915092;-63
2022/03/17 01:09:20;;;;;;;106.07;58.77;;;;;;;;;;784160;177;920902;-64
2022/03/17 01:11:46;;;;;;;121.33;58.53;;;;;;;;;;773016;180;922122;-63
2022/03/17 01:14:13;;;;;;;114.03;61.00;;;;;;;;;;774740;179;919558;-64
2022/03/17 01:16:37;;;;;;;110.30;56.73;;;;;;;;;;774568;180;915574;-64
2022/03/17 01:19:03;;;;;;;112.40;59.67;;;;;;;;;;784384;180;879855;-63
2022/03/17 01:21:29;;;;;;;112.53;61.00;;;;;;;;;;772668;178;921851;-63
2022/03/17 01:23:55;;;;;;;118.03;62.13;;;;;;;;;;769874;182;916022;-63
2022/03/17 01:26:20;;;;;;;103.40;57.05;;;;;;;;;;778104;178;911348;-63
2022/03/17 01:28:46;;;;;;;119.97;64.73;;;;;;;;;;776956;177;916387;-66
2022/03/17 01:31:13;;;;;;;124.47;63.33;;;;;;;;;;778114;179;915952;-65
2022/03/17 01:33:38;;;;;;;148.00;75.00;;;;;;;;;;778153;177;916090;-64
2022/03/17 01:36:05;;;;;;;127.20;67.30;;;;;;;;;;777157;180;915097;-66
2022/03/17 01:38:31;;;;;;;131.40;69.43;;;;;;;;;;762539;182;919494;-65
2022/03/17 01:40:56;;;;;;;165.20;80.97;;;;;;;;;;768684;180;919511;-65
2022/03/17 01:43:22;;;;;;;178.50;89.87;;;;;;;;;;782281;177;918606;-66
2022/03/17 01:45:48;;;;;;;181.90;91.63;;;;;;;;;;776197;179;919114;-65
2022/03/17 01:48:14;;;;;;;152.17;78.93;;;;;;;;;;777263;179;919236;-65
2022/03/17 01:50:40;;;;;;;155.10;80.67;;;;;;;;;;785250;178;853766;-65
2022/03/17 01:53:06;;;;;;;146.47;78.50;;;;;;;;;;776463;179;919501;-66
2022/03/17 01:55:32;;;;;;;133.80;73.50;;;;;;;;;;774113;179;920240;-66
2022/03/17 01:57:58;;;;;;;137.15;77.12;;;;;;;;;;769485;182;919531;-65
2022/03/17 02:00:23;;;;;;;143.63;74.47;;;;;;;;;;770236;179;919380;-65
2022/03/17 02:02:50;;;;;;;135.90;67.67;;;;;;;;;;775392;179;919720;-65
2022/03/17 02:05:17;;;;;;;137.23;71.60;;;;;;;;;;783351;177;1021689;-66
2022/03/17 02:07:47;;;;;;;128.97;66.97;;;;;;;;;;784971;176;918352;-65
2022/03/17 02:10:10;;;;;;;125.73;66.30;;;;;;;;;;785400;178;919879;-66
2022/03/17 02:15:08;;;;;;;144.97;73.03;;;;;;;;;;779352;177;919459;-65
2022/03/17 02:17:39;;;;;;;124.97;65.57;;;;;;;;;;784674;177;919920;-65
2022/03/17 02:20:00;;;;;;;122.53;67.10;;;;;;;;;;776112;179;918867;-66
2022/03/17 02:22:26;;;;;;;121.97;63.90;;;;;;;;;;770584;179;919124;-66
2022/03/17 02:27:24;;;;;;;133.87;69.33;;;;;;;;;;780372;177;918958;-66
2022/03/17 02:29:49;;;;;;;128.50;66.00;;;;;;;;;;779293;175;919173;-66
2022/03/17 02:32:16;;;;;;;141.93;75.50;;;;;;;;;;767371;179;920396;-65
2022/03/17 02:34:42;;;;;;;143.57;74.77;;;;;;;;;;771458;180;919511;-64
2022/03/17 02:37:07;;;;;;;140.43;72.43;;;;;;;;;;772835;177;920575;-63
2022/03/17 02:39:33;;;;;;;136.37;70.63;;;;;;;;;;779192;177;919518;-64
2022/03/17 02:42:00;;;;;;;131.00;70.67;;;;;;;;;;778213;179;918428;-64
2022/03/17 02:44:24;;;;;;;132.05;70.85;;;;;;;;;;770290;179;919153;-65
2022/03/17 02:46:50;;;;;;;148.90;82.23;;;;;;;;;;769570;179;918940;-65
2022/03/17 02:49:17;;;;;;;132.43;73.87;;;;;;;;;;771230;182;918980;-65
2022/03/17 02:51:42;;;;;;;156.20;74.13;;;;;;;;;;776474;176;918259;-65
2022/03/17 02:54:08;;;;;;;155.33;73.87;;;;;;;;;;771915;179;918432;-65
2022/03/17 02:56:34;;;;;;;162.93;79.80;;;;;;;;;;772720;180;919743;-63
2022/03/17 02:58:59;;;;;;;160.67;76.40;;;;;;;;;;779069;177;918679;-65
2022/03/17 03:01:25;;;;;;;195.73;84.10;;;;;;;;;;768468;179;920310;-65
2022/03/17 03:03:51;;;;;;;171.40;79.90;;;;;;;;;;773090;179;919289;-66
2022/03/17 03:06:17;;;;;;;179.97;76.53;;;;;;;;;;767489;183;919150;-65
2022/03/17 03:08:43;;;;;;;410.40;93.75;;;;;;;;;;763452;183;919805;-65
2022/03/17 03:11:08;;;;;;;398.10;93.97;;;;;;;;;;763299;180;919101;-65
2022/03/17 03:13:35;;;;;;;381.40;86.43;;;;;;;;;;768718;183;918007;-65
2022/03/17 03:16:01;;;;;;;356.50;94.73;;;;;;;;;;764286;180;1021683;-65
2022/03/17 03:18:26;;;;;;;364.83;86.20;;;;;;;;;;775136;180;918875;-64
2022/03/17 03:20:52;;;;;;;365.93;95.67;;;;;;;;;;781456;178;918961;-65
2022/03/17 03:23:18;;;;;;;296.43;94.30;;;;;;;;;;767473;178;919409;-65
2022/03/17 03:25:44;;;;;;;291.07;89.47;;;;;;;;;;768064;177;919334;-65
2022/03/17 03:28:10;;;;;;;200.83;81.13;;;;;;;;;;781055;178;919648;-65
2022/03/17 03:30:36;;;;;;;191.20;81.55;;;;;;;;;;786476;178;920108;-65
2022/03/17 03:33:03;;;;;;;193.03;71.87;;;;;;;;;;769385;179;920158;-65
2022/03/17 03:38:00;;;;;;;179.03;69.30;;;;;;;;;;783127;179;856285;-65
2022/03/17 03:40:26;;;;;;;197.73;68.77;;;;;;;;;;778356;179;919156;-65
2022/03/17 03:42:52;;;;;;;185.75;65.45;;;;;;;;;;768656;180;920166;-65
2022/03/17 03:45:18;;;;;;;195.30;65.60;;;;;;;;;;766040;180;920238;-65
2022/03/17 03:47:43;;;;;;;197.10;67.10;;;;;;;;;;770965;180;919300;-65
2022/03/17 03:50:10;;;;;;;206.77;70.20;;;;;;;;;;766102;180;919092;-65
2022/03/17 03:52:36;;;;;;;192.00;68.63;;;;;;;;;;774055;180;919825;-64
2022/03/17 03:55:01;;;;;;;145.97;65.80;;;;;;;;;;783100;177;918981;-64
2022/03/17 03:57:27;;;;;;;165.47;64.77;;;;;;;;;;768784;180;918693;-66
2022/03/17 03:59:53;;;;;;;203.30;70.00;;;;;;;;;;776382;179;918351;-64
2022/03/17 04:02:19;;;;;;;141.73;64.93;;;;;;;;;;785221;178;919780;-64
2022/03/17 04:04:45;;;;;;;154.35;66.75;;;;;;;;;;779508;179;919271;-64
2022/03/17 04:07:11;;;;;;;156.37;65.53;;;;;;;;;;772954;179;919195;-65
2022/03/17 04:09:39;;;;;;;140.77;65.17;;;;;;;;;;768479;180;919299;-63
2022/03/17 04:12:03;;;;;;;137.45;64.57;;;;;;;;;;777676;180;919055;-65
2022/03/17 04:14:30;;;;;;;145.83;65.43;;;;;;;;;;778189;177;919442;-64
2022/03/17 04:16:55;;;;;;;141.50;61.50;;;;;;;;;;770200;177;926201;-64
2022/03/17 04:19:21;;;;;;;139.13;65.03;;;;;;;;;;775580;179;911428;-64
2022/03/17 04:21:47;;;;;;;161.33;68.57;;;;;;;;;;769668;180;918635;-64
2022/03/17 04:24:13;;;;;;;141.27;64.23;;;;;;;;;;771558;179;917871;-64
2022/03/17 04:26:38;;;;;;;137.13;67.10;;;;;;;;;;776720;179;976579;-64
2022/03/17 04:29:04;;;;;;;172.23;70.47;;;;;;;;;;769659;179;919260;-63
2022/03/17 04:31:30;;;;;;;181.57;73.03;;;;;;;;;;771022;179;915725;-63
2022/03/17 04:33:56;;;;;;;177.40;66.83;;;;;;;;;;783499;178;916170;-63
2022/03/17 04:36:22;;;;;;;149.53;69.57;;;;;;;;;;776713;179;913717;-64
2022/03/17 04:38:48;;;;;;;174.40;82.80;;;;;;;;;;778079;179;956601;-64
2022/03/17 04:41:14;;;;;;;180.80;83.35;;;;;;;;;;771887;180;917704;-63
2022/03/17 04:43:39;;;;;;;226.83;110.00;;;;;;;;;;777109;179;921803;-64
2022/03/17 04:46:07;;;;;;;163.70;77.03;;;;;;;;;;771174;178;919284;-63
2022/03/17 04:48:31;;;;;;;160.30;72.57;;;;;;;;;;770976;179;922999;-64
2022/03/17 04:50:57;;;;;;;154.47;71.37;;;;;;;;;;771456;179;919023;-64
2022/03/17 04:53:27;;;;;;;148.20;74.17;;;;;;;;;;770397;179;919258;-64
2022/03/17 04:55:53;;;;;;;149.63;72.07;;;;;;;;;;771836;180;918796;-64
2022/03/17 04:58:19;;;;;;;162.03;73.60;;;;;;;;;;769356;180;919299;-65
2022/03/17 05:00:44;;;;;;;151.80;73.00;;;;;;;;;;778072;180;630649;-64
2022/03/17 05:03:10;;;;;;;174.83;67.10;;;;;;;;;;770539;180;921330;-64
2022/03/17 05:05:36;;;;;;;156.07;68.03;;;;;;;;;;769902;179;921569;-64
2022/03/17 05:08:02;;;;;;;168.80;68.80;;;;;;;;;;774673;180;919733;-64
2022/03/17 05:10:29;;;;;;;159.63;75.43;;;;;;;;;;768461;180;919059;-64
2022/03/17 05:12:54;;;;;;;140.60;68.07;;;;;;;;;;767988;180;918757;-65
2022/03/17 05:15:20;;;;;;;173.53;77.87;;;;;;;;;;778606;180;615279;-64
2022/03/17 05:17:47;;;;;;;134.83;67.90;;;;;;;;;;776489;179;753670;-65
2022/03/17 05:20:12;;;;;;;153.03;74.33;;;;;;;;;;785140;177;623963;-64
2022/03/17 05:22:38;;;;;;;132.80;68.90;;;;;;;;;;770300;179;917472;-63
2022/03/17 05:25:04;;;;;;;145.17;72.30;;;;;;;;;;772444;180;911515;-64
2022/03/17 05:27:30;;;;;;;140.03;69.60;;;;;;;;;;774224;179;912312;-64
2022/03/17 05:29:56;;;;;;;139.13;74.07;;;;;;;;;;775691;179;916342;-64
2022/03/17 05:32:21;;;;;;;150.37;75.33;;;;;;;;;;782702;177;914935;-64
2022/03/17 05:34:47;;;;;;;141.37;69.40;;;;;;;;;;771163;179;916750;-64
2022/03/17 05:37:13;;;;;;;151.30;72.47;;;;;;;;;;772228;180;920257;-64
2022/03/17 05:39:40;;;;;;;149.47;75.70;;;;;;;;;;777122;179;912334;-65
2022/03/17 05:42:05;;;;;;;145.37;70.97;;;;;;;;;;769589;180;918733;-64
2022/03/17 05:44:31;;;;;;;153.03;79.17;;;;;;;;;;771300;179;944794;-64
2022/03/17 05:46:57;;;;;;;154.53;78.30;;;;;;;;;;773809;179;919009;-63
2022/03/17 05:49:22;;;;;;;156.23;73.80;;;;;;;;;;773948;178;916006;-64
2022/03/17 05:51:48;;;;;;;145.20;68.90;;;;;;;;;;771027;178;915867;-64
2022/03/17 05:54:14;;;;;;;155.33;77.97;;;;;;;;;;767898;178;1018261;-64
2022/03/17 05:56:40;;;;;;;160.90;74.80;;;;;;;;;;776058;179;919662;-65
2022/03/17 05:59:06;;;;;;;167.67;75.10;;;;;;;;;;771920;179;926982;-65
2022/03/17 06:01:32;;;;;;;166.85;81.97;;;;;;;;;;767641;180;919172;-64
2022/03/17 06:03:58;;;;;;;161.77;74.03;;;;;;;;;;775458;180;918224;-65
2022/03/17 06:06:23;;;;;;;192.33;82.70;;;;;;;;;;773222;179;920218;-63
2022/03/17 06:08:49;;;;;;;184.67;87.87;;;;;;;;;;769850;179;922797;-64
2022/03/17 06:11:15;;;;;;;198.53;87.33;;;;;;;;;;776983;179;919362;-64
2022/03/17 06:13:44;;;;;;;168.60;81.75;;;;;;;;;;768323;179;925348;-64
2022/03/17 06:16:07;;;;;;;187.47;89.53;;;;;;;;;;778724;178;877953;-64
2022/03/17 06:18:33;;;;;;;199.03;89.80;;;;;;;;;;769585;180;920055;-62
2022/03/17 06:20:58;;;;;;;198.80;89.77;;;;;;;;;;775717;179;1020854;-61
2022/03/17 06:23:24;;;;;;;189.30;86.07;;;;;;;;;;776329;177;920375;-61
2022/03/17 06:25:50;;;;;;;190.48;89.00;;;;;;;;;;778307;177;919070;-61
2022/03/17 06:28:18;;;;;;;186.33;84.07;;;;;;;;;;776364;179;920489;-61
2022/03/17 06:30:42;;;;;;;183.17;85.03;;;;;;;;;;771808;179;920577;-62
2022/03/17 06:33:08;;;;;;;180.90;85.10;;;;;;;;;;772163;179;919168;-62
2022/03/17 06:35:34;;;;;;;165.97;78.57;;;;;;;;;;775044;180;921868;-62
2022/03/17 06:37:59;;;;;;;174.62;87.90;;;;;;;;;;772578;179;919593;-62
2022/03/17 06:40:25;;;;;;;167.50;79.77;;;;;;;;;;769341;179;920337;-62
2022/03/17 06:42:51;;;;;;;180.17;86.50;;;;;;;;;;769027;179;951900;-61
2022/03/17 06:45:17;;;;;;;175.03;80.47;;;;;;;;;;769790;182;920710;-61
2022/03/17 06:47:43;;;;;;;175.67;82.10;;;;;;;;;;777748;178;920248;-60
2022/03/17 06:50:09;;;;;;;176.75;84.60;;;;;;;;;;769838;179;920018;-60
2022/03/17 06:52:35;;;;;;;174.33;78.60;;;;;;;;;;776678;179;919625;-60
2022/03/17 06:55:01;;;;;;;177.77;83.77;;;;;;;;;;773906;178;919902;-61
2022/03/17 06:57:27;;;;;;;184.53;83.10;;;;;;;;;;771892;179;925794;-60
2022/03/17 06:59:53;;;;;;;188.37;90.00;;;;;;;;;;777896;179;919007;-60
2022/03/17 07:02:19;;;;;;;193.20;91.07;;;;;;;;;;772567;178;1126218;-63
2022/03/17 07:04:44;;;;;;;195.35;90.90;;;;;;;;;;774941;178;1022468;-61
2022/03/17 07:07:10;;;;;;;204.23;92.12;;;;;;;;;;774791;178;919707;-61
2022/03/17 07:09:36;;;;;;;168.53;78.93;;;;;;;;;;782985;176;920434;-61
2022/03/17 07:12:02;;;;;;;159.53;82.80;;;;;;;;;;771555;180;919876;-62
2022/03/17 07:14:28;;;;;;;160.40;87.26;;;;;;;;;;769875;177;1021247;-61
2022/03/17 07:16:54;;;;;;;169.63;83.67;;;;;;;;;;773468;180;919930;-61
2022/03/17 07:19:20;;;;;;;216.40;113.10;;;;;;;;;;777460;179;920415;-61
2022/03/17 07:21:46;;;;;;;232.50;121.53;;;;;;;;;;775695;179;919836;-62
2022/03/17 07:24:11;;;;;;;220.60;115.07;;;;;;;;;;774127;177;871266;-61
2022/03/17 07:26:39;;;;;;;255.03;128.17;;;;;;;;;;769290;180;919045;-61
2022/03/17 07:29:03;;;;;;;234.80;114.97;;;;;;;;;;774929;177;919846;-61
2022/03/17 07:31:29;;;;;;;218.57;111.40;;;;;;;;;;774323;179;919694;-61
2022/03/17 07:33:55;;;;;;;219.13;109.10;;;;;;;;;;775370;178;919496;-62
2022/03/17 07:36:21;;;;;;;245.07;124.47;;;;;;;;;;766607;180;919673;-62
2022/03/17 07:38:47;;;;;;;215.10;105.33;;;;;;;;;;767477;179;1053524;-63
2022/03/17 07:41:13;;;;;;;194.50;94.10;;;;;;;;;;776765;180;918917;-61
2022/03/17 07:43:38;;;;;;;211.03;91.67;;;;;;;;;;767034;179;919232;-62
2022/03/17 07:46:04;;;;;;;172.50;87.13;;;;;;;;;;768531;179;920196;-62
2022/03/17 07:48:30;;;;;;;204.93;98.57;;;;;;;;;;774921;179;919640;-61
2022/03/17 07:50:56;;;;;;;206.80;97.50;;;;;;;;;;773271;179;918799;-62
2022/03/17 07:53:22;;;;;;;220.30;107.70;;;;;;;;;;768476;180;1021183;-61
2022/03/17 07:55:48;;;;;;;213.30;94.77;;;;;;;;;;778331;179;919998;-61
2022/03/17 07:58:15;;;;;;;224.10;106.27;;;;;;;;;;772857;179;919595;-62
2022/03/17 08:00:40;;;;;;;203.63;101.97;;;;;;;;;;770206;180;919454;-63
2022/03/17 08:03:05;;;;;;;203.00;99.27;;;;;;;;;;770387;180;919950;-62
2022/03/17 08:05:31;;;;;;;212.80;104.27;;;;;;;;;;777392;178;920190;-62
2022/03/17 08:07:59;;;;;;;205.50;101.20;;;;;;;;;;773992;176;919290;-62
2022/03/17 08:10:23;;;;;;;187.90;93.67;;;;;;;;;;776385;178;919033;-61
2022/03/17 08:12:49;;;;;;;202.77;97.97;;;;;;;;;;776637;178;920580;-61
2022/03/17 08:15:14;;;;;;;202.18;95.82;;;;;;;;;;779301;176;915722;-62
2022/03/17 08:17:41;;;;;;;160.07;88.87;;;;;;;;;;773682;180;625326;-62
2022/03/17 08:20:08;;;;;;;198.55;96.22;;;;;;;;;;775150;180;912975;-61
2022/03/17 08:22:34;;;;;;;207.18;94.37;;;;;;;;;;772188;179;919258;-62
2022/03/17 08:24:59;;;;;;;203.03;89.37;;;;;;;;;;779398;176;918688;-62
2022/03/17 08:27:25;;;;;;;227.97;116.20;;;;;;;;;;770530;180;919077;-62
2022/03/17 08:29:51;;;;;;;220.97;109.03;;;;;;;;;;769312;181;919286;-62
2022/03/17 08:32:17;;;;;;;178.87;90.97;;;;;;;;;;770231;180;919494;-62
2022/03/17 08:34:42;;;;;;;215.60;107.87;;;;;;;;;;769569;180;919020;-61
2022/03/17 08:37:09;;;;;;;208.87;114.37;;;;;;;;;;775146;179;918988;-62
2022/03/17 08:39:34;;;;;;;194.53;98.73;;;;;;;;;;773589;177;919371;-62
2022/03/17 08:42:00;;;;;;;208.90;103.50;;;;;;;;;;773175;179;919582;-63
2022/03/17 08:44:26;;;;;;;224.80;116.45;;;;;;;;;;775038;179;922117;-62
2022/03/17 08:49:23;;;;;;;199.32;97.50;;;;;;;;;;770702;177;921233;-62
2022/03/17 08:51:51;;;;;;;179.47;91.70;;;;;;;;;;770072;180;1022725;-62
2022/03/17 08:54:16;;;;;;;175.90;92.57;;;;;;;;;;778297;177;919139;-63
2022/03/17 08:56:42;;;;;;;157.32;83.97;;;;;;;;;;776079;179;919888;-62
2022/03/17 08:59:10;;;;;;;155.80;78.15;;;;;;;;;;775292;179;919543;-63
2022/03/17 09:01:37;;;;;;;160.70;88.70;;;;;;;;;;778962;179;919951;-62
2022/03/17 09:04:03;;;;;;;141.30;72.50;;;;;;;;;;778311;178;920209;-63
2022/03/17 09:06:27;;;;;;;151.97;81.47;;;;;;;;;;775948;179;919196;-62
2022/03/17 09:08:52;;;;;;;147.55;83.45;;;;;;;;;;778163;180;918785;-62
2022/03/17 09:11:18;;;;;;;148.37;77.60;;;;;;;;;;771112;180;919239;-62
2022/03/17 09:13:45;;;;;;;119.63;61.67;;;;;;;;;;769606;179;919339;-62
2022/03/17 09:16:10;;;;;;;139.63;73.43;;;;;;;;;;780027;178;918526;-63
2022/03/17 09:18:36;;;;;;;139.00;65.57;;;;;;;;;;774231;180;919929;-62
2022/03/17 09:21:02;;;;;;;124.60;64.73;;;;;;;;;;768310;180;1021137;-62
2022/03/17 09:23:29;;;;;;;137.80;71.33;;;;;;;;;;773783;179;919221;-62
2022/03/17 09:25:53;;;;;;;144.10;77.00;;;;;;;;;;790213;177;919286;-62
2022/03/17 09:28:19;;;;;;;149.30;71.60;;;;;;;;;;775898;177;918886;-62
2022/03/17 09:30:45;;;;;;;113.73;58.57;;;;;;;;;;770764;180;919204;-63
2022/03/17 09:33:11;;;;;;;136.37;78.00;;;;;;;;;;776537;180;920116;-63
2022/03/17 09:35:37;;;;;;;141.27;78.07;;;;;;;;;;779263;178;920289;-62
2022/03/17 09:38:03;;;;;;;140.57;77.05;;;;;;;;;;768877;180;919100;-62
2022/03/17 09:40:29;;;;;;;150.43;77.43;;;;;;;;;;770815;180;926137;-63
2022/03/17 09:43:18;;;;;;;136.10;76.60;;;;;;;;;;779055;180;920007;-63
2022/03/17 09:45:21;;;;;;;136.17;75.10;;;;;;;;;;779458;177;952453;-62
2022/03/17 09:47:48;;;;;;;104.43;61.63;;;;;;;;;;769671;180;920102;-61
2022/03/17 09:50:14;;;;;;;112.40;60.33;;;;;;;;;;771426;180;918752;-64
2022/03/17 09:52:39;;;;;;;114.95;61.17;;;;;;;;;;768126;182;919461;-63
2022/03/17 09:55:09;;;;;;;150.00;79.10;;;;;;;;;;772767;179;919828;-63
2022/03/17 09:57:32;;;;;;;127.70;68.80;;;;;;;;;;775661;179;919039;-66
2022/03/17 09:59:58;;;;;;;142.23;75.47;;;;;;;;;;773744;177;919090;-63
2022/03/17 10:02:23;;;;;;;130.93;67.30;;;;;;;;;;774026;179;919586;-62
2022/03/17 10:04:49;;;;;;;116.63;63.40;;;;;;;;;;776376;178;920147;-62
2022/03/17 10:07:17;;;;;;;117.90;58.43;;;;;;;;;;780617;179;922717;-63
2022/03/17 10:09:42;;;;;;;131.20;66.83;;;;;;;;;;771785;179;919087;-63
2022/03/17 10:12:09;;;;;;;115.33;61.70;;;;;;;;;;768606;179;918776;-62
2022/03/17 10:14:36;;;;;;;115.00;68.20;;;;;;;;;;774924;179;915867;-62
2022/03/17 10:17:02;;;;;;;106.23;51.93;;;;;;;;;;772308;180;916587;-62
2022/03/17 10:19:31;;;;;;;144.80;68.90;;;;;;;;;;777398;178;916065;-63
2022/03/17 10:21:57;;;;;;;126.07;67.77;;;;;;;;;;770855;179;967375;-63
2022/03/17 10:24:22;;;;;;;92.83;52.67;;;;;;;;;;766239;179;918173;-63
2022/03/17 10:26:51;;;;;;;122.03;60.80;;;;;;;;;;770647;179;919333;-62
2022/03/17 10:29:15;;;;;;;132.67;69.40;;;;;;;;;;771241;179;946632;-63
2022/03/17 10:31:47;;;;;;;112.25;58.45;;;;;;;;;;777038;178;919191;-63
2022/03/17 10:34:13;;;;;;;117.13;63.07;;;;;;;;;;767372;178;919790;-62
2022/03/17 10:36:38;;;;;;;124.77;64.40;;;;;;;;;;766015;180;923734;-63
2022/03/17 10:39:04;;;;;;;114.03;62.20;;;;;;;;;;775214;178;919333;-63
2022/03/17 10:41:30;;;;;;;129.07;66.97;;;;;;;;;;776697;179;919060;-63
2022/03/17 10:43:56;;;;;;;129.40;66.60;;;;;;;;;;769270;179;925901;-63
2022/03/17 10:46:22;;;;;;;135.43;73.47;;;;;;;;;;772301;178;924964;-63
2022/03/17 10:48:52;;;;;;;129.63;71.87;;;;;;;;;;777594;178;919096;-64
2022/03/17 10:51:23;;;;;;;121.33;67.60;;;;;;;;;;778298;178;919087;-63
2022/03/17 10:53:49;;;;;;;134.77;70.57;;;;;;;;;;772213;177;919185;-64
2022/03/17 10:56:17;;;;;;;136.27;69.17;;;;;;;;;;770604;177;998572;-64
2022/03/17 10:58:41;;;;;;;139.77;71.30;;;;;;;;;;776271;179;919425;-64
2022/03/17 11:01:07;;;;;;;139.63;72.30;;;;;;;;;;764701;178;919466;-62
2022/03/17 11:03:32;;;;;;;128.30;70.97;;;;;;;;;;780661;176;917260;-63
2022/03/17 11:05:58;;;;;;;145.30;77.03;;;;;;;;;;775901;179;919788;-64
2022/03/17 11:08:24;;;;;;;128.83;78.37;;;;;;;;;;773216;179;919625;-63
2022/03/17 11:10:50;;;;;;;157.03;85.27;;;;;;;;;;769580;179;919266;-63
2022/03/17 11:13:16;;;;;;;148.27;78.00;;;;;;;;;;780963;179;1123628;-64
2022/03/17 11:15:45;;;;;;;120.17;64.97;;;;;;;;;;769394;180;939009;-64
2022/03/17 11:18:11;;;;;;;127.50;62.43;;;;;;;;;;775531;179;918660;-63
2022/03/17 11:20:37;;;;;;;133.10;75.97;;;;;;;;;;777172;179;919693;-63
2022/03/17 11:23:10;;;;;;;141.67;81.63;;;;;;;;;;773425;180;943281;-64
2022/03/17 11:25:36;;;;;;;137.63;78.07;;;;;;;;;;777407;178;920659;-63
2022/03/17 11:28:02;;;;;;;120.33;68.57;;;;;;;;;;769253;179;1027631;-64
2022/03/17 11:30:28;;;;;;;119.73;68.13;;;;;;;;;;771283;179;919306;-63
2022/03/17 11:32:55;;;;;;;128.57;72.67;;;;;;;;;;780076;177;919059;-64
2022/03/17 11:35:20;;;;;;;124.40;75.70;;;;;;;;;;776596;176;1013709;-64
2022/03/17 11:37:47;;;;;;;127.73;73.47;;;;;;;;;;771231;179;919298;-63
2022/03/17 11:40:14;;;;;;;149.83;82.77;;;;;;;;;;775877;180;919575;-63
2022/03/17 11:42:40;;;;;;;147.10;82.80;;;;;;;;;;766670;178;920038;-64
2022/03/17 11:45:10;;;;;;;188.87;101.97;;;;;;;;;;765798;180;918527;-64
2022/03/17 11:47:37;;;;;;;140.53;80.93;;;;;;;;;;769161;182;919322;-64
2022/03/17 11:50:19;;;;;;;135.43;73.50;;;;;;;;;;756005;183;919421;-64
2022/03/17 11:52:45;;;;;;;123.30;69.93;;;;;;;;;;738332;190;919181;-63
2022/03/17 11:55:27;;;;;;;127.47;62.43;;;;;;;;;;748225;183;919035;-63
2022/03/17 11:57:59;;;;;;;150.70;82.70;;;;;;;;;;745102;183;920188;-63
2022/03/17 12:00:26;;;;;;;115.53;62.90;;;;;;;;;;761130;183;919848;-64
2022/03/17 12:02:51;;;;;;;132.77;71.57;;;;;;;;;;767557;184;918667;-64
2022/03/17 12:05:17;;;;;;;116.43;65.80;;;;;;;;;;760352;181;919335;-64
2022/03/17 12:07:44;;;;;;;124.43;66.10;;;;;;;;;;758457;183;918697;-64
2022/03/17 12:10:10;;;;;;;118.30;67.17;;;;;;;;;;760917;184;919413;-66
2022/03/17 12:12:36;;;;;;;113.70;67.50;;;;;;;;;;764321;183;953767;-63
2022/03/17 12:15:02;;;;;;;97.33;62.13;;;;;;;;;;761068;180;920507;-65
2022/03/17 12:17:28;;;;;;;110.27;57.80;;;;;;;;;;772726;179;919335;-63
2022/03/17 12:19:59;;;;;;;104.60;60.07;;;;;;;;;;772103;179;954078;-63
2022/03/17 12:22:36;;;;;;;97.90;55.63;;;;;;;;;;765259;180;918959;-64
2022/03/17 12:25:00;;;;;;;106.97;58.23;;;;;;;;;;765638;180;920950;-64
2022/03/17 12:27:30;;;;;;;127.03;70.27;;;;;;;;;;775352;179;917435;-64
2022/03/17 12:29:59;;;;;;;123.60;66.40;;;;;;;;;;775460;179;920201;-63
2022/03/17 12:32:25;;;;;;;101.57;55.43;;;;;;;;;;781240;179;919543;-64
2022/03/17 12:34:50;;;;;;;101.57;51.97;;;;;;;;;;771005;179;916302;-66
2022/03/17 12:37:16;;;;;;;97.90;56.97;;;;;;;;;;773483;177;920652;-64
2022/03/17 12:39:42;;;;;;;92.00;52.13;;;;;;;;;;780556;179;914774;-64
2022/03/17 12:42:12;;;;;;;105.13;57.80;;;;;;;;;;772077;179;920232;-64
2022/03/17 12:44:37;;;;;;;99.13;55.22;;;;;;;;;;768900;180;915198;-64
2022/03/17 12:47:04;;;;;;;84.70;50.80;;;;;;;;;;768446;180;919146;-63
2022/03/17 12:49:30;;;;;;;96.23;52.70;;;;;;;;;;768131;178;918162;-64
2022/03/17 12:51:56;;;;;;;89.83;50.07;;;;;;;;;;761001;178;1100209;-64
2022/03/17 12:54:22;;;;;;;98.50;53.70;;;;;;;;;;774505;176;920985;-64
2022/03/17 12:56:48;;;;;;;94.03;53.20;;;;;;;;;;772807;178;1500081;-65
2022/03/17 12:59:14;;;;;;;82.43;49.93;;;;;;;;;;782385;177;919361;-64
2022/03/17 13:01:40;;;;;;;92.15;55.25;;;;;;;;;;775928;178;918890;-64
2022/03/17 13:04:06;;;;;;;83.87;45.03;;;;;;;;;;780363;176;919065;-65
2022/03/17 13:09:04;;;;;;;82.67;48.60;;;;;;;;;;776511;179;915422;-64
2022/03/17 13:16:33;;;;;;;70.43;43.63;;;;;;;;;;773984;182;914223;-64
2022/03/17 13:18:59;;;;;;;81.27;44.50;;;;;;;;;;762112;179;919572;-63
2022/03/17 13:21:25;;;;;;;89.30;45.07;;;;;;;;;;768145;179;919519;-64
2022/03/17 13:23:50;;;;;;;70.40;43.57;;;;;;;;;;775503;178;918491;-65
2022/03/17 13:26:21;;;;;;;83.10;48.17;;;;;;;;;;770615;179;918944;-66
2022/03/17 13:28:53;;;;;;;78.27;48.47;;;;;;;;;;778720;177;628802;-64
2022/03/17 13:31:20;;;;;;;84.10;45.60;;;;;;;;;;774044;180;919380;-65
2022/03/17 13:33:44;;;;;;;80.37;44.17;;;;;;;;;;773725;179;1049300;-64
2022/03/17 13:36:10;;;;;;;89.82;50.22;;;;;;;;;;777175;176;918801;-64
2022/03/17 13:38:37;;;;;;;78.27;46.67;;;;;;;;;;773469;179;920525;-65
2022/03/17 13:41:02;;;;;;;70.70;45.17;;;;;;;;;;776961;179;918671;-64
2022/03/17 13:43:30;;;;;;;74.17;46.70;;;;;;;;;;770878;179;919112;-64
2022/03/17 13:45:56;;;;;;;72.80;42.77;;;;;;;;;;771087;179;919573;-64
2022/03/17 13:48:21;;;;;;;81.77;44.97;;;;;;;;;;775148;179;919181;-65
2022/03/17 13:50:52;;;;;;;68.63;42.27;;;;;;;;;;776729;177;919953;-66
2022/03/17 13:53:26;;;;;;;72.47;41.70;;;;;;;;;;774221;179;922586;-65
2022/03/17 13:55:53;;;;;;;70.30;43.73;;;;;;;;;;768393;179;919221;-64
2022/03/17 13:58:19;;;;;;;72.47;42.50;;;;;;;;;;770033;178;918805;-64
2022/03/17 14:00:45;;;;;;;71.60;43.70;;;;;;;;;;770945;179;920153;-63
2022/03/17 14:03:12;;;;;;;65.47;42.87;;;;;;;;;;767228;180;972404;-65
2022/03/17 14:05:38;;;;;;;72.70;44.30;;;;;;;;;;770827;179;916700;-64